createdAt,value
2023-02-19T00:00:02.003Z,5.53
2023-02-19T00:02:30.056Z,4.70
2023-02-19T00:04:58.042Z,6.07
2023-02-19T00:07:26.078Z,5.07
2023-02-19T00:09:54.071Z,6.77
2023-02-19T00:12:22.166Z,7.17
2023-02-19T00:14:50.144Z,6.50
2023-02-19T00:17:18.660Z,5.40
2023-02-19T00:19:47.024Z,6.67
2023-02-19T00:22:15.468Z,5.20
2023-02-19T00:24:44.016Z,6.07
2023-02-19T00:27:12.412Z,6.20
2023-02-19T00:29:40.489Z,7.13
2023-02-19T00:32:08.977Z,5.30
2023-02-19T00:34:37.610Z,5.33
2023-02-19T00:37:05.563Z,6.30
2023-02-19T00:39:33.611Z,6.33
2023-02-19T00:42:02.052Z,6.17
2023-02-19T00:44:30.432Z,6.70
2023-02-19T00:46:58.970Z,5.03
2023-02-19T00:49:27.385Z,4.77
2023-02-19T00:51:55.632Z,7.50
2023-02-19T00:54:24.660Z,5.50
2023-02-19T00:56:53.100Z,5.43
2023-02-19T00:59:21.533Z,5.90
2023-02-19T01:01:50.738Z,8.33
2023-02-19T01:04:19.246Z,6.10
2023-02-19T01:06:48.885Z,5.53
2023-02-19T01:09:17.022Z,8.00
2023-02-19T01:11:45.093Z,5.50
2023-02-19T01:14:13.406Z,10.17
2023-02-19T01:16:41.912Z,9.70
2023-02-19T01:19:09.948Z,7.03
2023-02-19T01:21:38.057Z,6.83
2023-02-19T01:24:06.449Z,8.27
2023-02-19T01:26:35.096Z,7.17
2023-02-19T01:29:03.529Z,7.20
2023-02-19T01:31:40.040Z,7.47
2023-02-19T01:52:25.768Z,9.17
2023-02-19T01:55:08.928Z,8.87
2023-02-19T02:00:54.850Z,7.10
2023-02-19T02:03:30.229Z,8.23
2023-02-19T02:09:07.429Z,8.70
2023-02-19T02:11:36.709Z,7.23
2023-02-19T02:14:05.962Z,6.43
2023-02-19T02:17:04.244Z,6.93
2023-02-19T02:19:51.115Z,6.77
2023-02-19T02:22:39.420Z,7.37
2023-02-19T02:25:10.351Z,5.20
2023-02-19T02:28:09.414Z,6.83
2023-02-19T02:30:55.977Z,6.07
2023-02-19T02:33:43.399Z,4.70
2023-02-19T02:36:19.033Z,3.47
2023-02-19T02:38:48.897Z,3.80
2023-02-19T02:41:17.643Z,4.07
2023-02-19T02:43:45.760Z,3.53
2023-02-19T02:46:33.225Z,2.93
2023-02-19T02:49:07.960Z,2.50
2023-02-19T02:51:50.638Z,3.70
2023-02-19T02:54:42.782Z,2.10
2023-02-19T02:57:14.922Z,2.40
2023-02-19T02:59:44.185Z,1.83
2023-02-19T03:02:23.646Z,1.57
2023-02-19T03:05:23.099Z,3.10
2023-02-19T03:08:07.910Z,2.13
2023-02-19T03:10:51.872Z,1.83
2023-02-19T03:13:53.891Z,1.73
2023-02-19T03:16:47.388Z,1.53
2023-02-19T03:19:22.265Z,1.70
2023-02-19T03:22:30.567Z,1.10
2023-02-19T03:25:40.116Z,1.17
2023-02-19T03:28:16.057Z,1.57
2023-02-19T03:30:50.583Z,1.50
2023-02-19T03:33:24.123Z,1.30
2023-02-19T03:36:04.073Z,1.20
2023-02-19T03:38:42.044Z,0.87
2023-02-19T03:41:59.834Z,3.17
2023-02-19T03:44:40.979Z,1.10
2023-02-19T03:47:34.176Z,9.67
2023-02-19T03:50:08.091Z,1.17
2023-02-19T03:52:59.881Z,2.53
2023-02-19T03:56:17.657Z,1.00
2023-02-19T03:59:00.273Z,1.07
2023-02-19T04:01:55.275Z,0.80
2023-02-19T04:04:42.949Z,0.70
2023-02-19T04:07:11.618Z,1.57
2023-02-19T04:09:45.908Z,2.47
2023-02-19T04:12:15.965Z,1.87
2023-02-19T04:14:51.691Z,1.23
2023-02-19T04:17:50.284Z,1.60
2023-02-19T04:20:20.316Z,2.33
2023-02-19T04:22:50.273Z,2.37
2023-02-19T04:25:18.915Z,1.23
2023-02-19T04:27:48.115Z,1.37
2023-02-19T04:30:16.907Z,1.40
2023-02-19T04:32:45.391Z,1.20
2023-02-19T04:35:13.891Z,1.50
2023-02-19T04:37:42.363Z,1.67
2023-02-19T04:40:11.708Z,1.67
2023-02-19T04:42:39.740Z,1.37
2023-02-19T04:45:08.375Z,0.80
2023-02-19T04:47:36.853Z,1.10
2023-02-19T04:50:05.505Z,1.07
2023-02-19T04:52:34.438Z,0.70
2023-02-19T04:55:02.928Z,0.87
2023-02-19T04:57:31.377Z,0.60
2023-02-19T04:59:59.500Z,0.80
2023-02-19T05:02:27.640Z,0.53
2023-02-19T05:04:56.208Z,0.47
2023-02-19T05:07:24.380Z,0.80
2023-02-19T05:09:52.490Z,0.50
2023-02-19T05:12:20.806Z,0.73
2023-02-19T05:14:49.104Z,0.50
2023-02-19T05:17:17.592Z,0.60
2023-02-19T05:19:46.094Z,0.80
2023-02-19T05:22:14.592Z,0.87
2023-02-19T05:24:43.167Z,0.87
2023-02-19T05:27:11.658Z,1.50
2023-02-19T05:29:40.137Z,1.63
2023-02-19T05:32:08.772Z,1.60
2023-02-19T05:34:37.293Z,1.73
2023-02-19T05:37:05.334Z,2.13
2023-02-19T05:39:33.867Z,1.60
2023-02-19T05:42:02.010Z,1.77
2023-02-19T05:44:30.455Z,1.77
2023-02-19T05:46:58.977Z,2.00
2023-02-19T05:49:27.960Z,2.57
2023-02-19T05:51:56.431Z,2.00
2023-02-19T05:54:24.898Z,2.43
2023-02-19T05:56:53.405Z,1.80
2023-02-19T05:59:25.592Z,2.00
2023-02-19T06:01:56.042Z,2.77
2023-02-19T06:04:24.692Z,1.70
2023-02-19T06:06:52.794Z,2.37
2023-02-19T06:09:21.133Z,3.07
2023-02-19T06:11:49.510Z,1.80
2023-02-19T06:14:18.037Z,2.63
2023-02-19T06:16:46.538Z,1.80
2023-02-19T06:19:15.025Z,2.43
2023-02-19T06:21:46.725Z,2.40
2023-02-19T06:24:14.822Z,1.83
2023-02-19T06:26:42.951Z,1.90
2023-02-19T06:29:11.418Z,2.03
2023-02-19T06:31:40.167Z,2.20
2023-02-19T06:34:08.662Z,1.80
2023-02-19T06:36:37.131Z,1.77
2023-02-19T06:39:06.949Z,1.93
2023-02-19T06:41:35.417Z,2.20
2023-02-19T06:44:04.066Z,1.80
2023-02-19T06:46:32.550Z,2.63
2023-02-19T06:49:00.994Z,2.60
2023-02-19T06:51:29.853Z,2.20
2023-02-19T06:53:58.455Z,2.33
2023-02-19T06:56:37.561Z,1.63
2023-02-19T06:59:09.442Z,1.97
2023-02-19T07:01:38.632Z,1.97
2023-02-19T07:04:08.462Z,1.50
2023-02-19T07:06:37.583Z,2.00
2023-02-19T07:09:08.150Z,2.03
2023-02-19T07:11:39.019Z,2.47
2023-02-19T07:14:10.383Z,2.20
2023-02-19T07:16:39.445Z,2.23
2023-02-19T07:19:08.206Z,2.53
2023-02-19T07:21:37.963Z,2.37
2023-02-19T07:24:06.823Z,2.77
2023-02-19T07:26:35.442Z,2.47
2023-02-19T07:29:04.034Z,2.20
2023-02-19T07:31:32.596Z,2.77
2023-02-19T07:34:00.979Z,2.83
2023-02-19T07:36:29.200Z,2.63
2023-02-19T07:38:59.040Z,2.83
2023-02-19T07:41:28.572Z,5.33
2023-02-19T07:43:57.316Z,4.40
2023-02-19T07:46:25.935Z,5.43
2023-02-19T07:48:54.625Z,5.77
2023-02-19T07:51:23.473Z,3.43
2023-02-19T07:53:52.350Z,4.13
2023-02-19T07:56:21.215Z,4.57
2023-02-19T07:58:49.828Z,5.37
2023-02-19T08:01:45.340Z,7.97
2023-02-19T08:04:14.403Z,4.20
2023-02-19T08:06:43.343Z,4.50
2023-02-19T08:09:11.816Z,4.70
2023-02-19T08:11:57.551Z,3.00
2023-02-19T08:14:29.491Z,2.80
2023-02-19T08:16:58.386Z,4.80
2023-02-19T08:19:27.067Z,4.40
2023-02-19T08:21:55.581Z,6.20
2023-02-19T08:24:24.243Z,3.60
2023-02-19T08:26:52.693Z,6.80
2023-02-19T08:29:21.172Z,4.00
2023-02-19T08:31:49.778Z,3.77
2023-02-19T08:34:18.380Z,4.90
2023-02-19T08:36:46.833Z,2.47
2023-02-19T08:39:15.313Z,2.73
2023-02-19T08:41:43.918Z,1.77
2023-02-19T08:44:12.384Z,1.80
2023-02-19T08:46:40.852Z,1.57
2023-02-19T08:49:09.344Z,3.27
2023-02-19T08:51:37.791Z,1.60
2023-02-19T08:54:06.352Z,3.40
2023-02-19T08:56:34.869Z,2.60
2023-02-19T08:59:03.408Z,3.47
2023-02-19T09:01:32.145Z,4.30
2023-02-19T09:04:00.623Z,2.37
2023-02-19T09:06:29.135Z,3.60
2023-02-19T09:08:57.579Z,3.53
2023-02-19T09:11:26.075Z,3.40
2023-02-19T09:13:57.154Z,3.90
2023-02-19T09:16:25.589Z,3.77
2023-02-19T09:18:54.056Z,2.27
2023-02-19T09:21:22.506Z,2.53
2023-02-19T09:23:51.024Z,2.47
2023-02-19T09:26:19.461Z,3.50
2023-02-19T09:28:47.946Z,3.10
2023-02-19T09:31:17.450Z,5.93
2023-02-19T09:33:46.938Z,2.87
2023-02-19T09:36:17.134Z,4.23
2023-02-19T09:38:45.991Z,3.47
2023-02-19T09:41:27.508Z,4.93
2023-02-19T09:43:56.119Z,2.40
2023-02-19T09:46:40.067Z,4.17
2023-02-19T09:49:24.205Z,2.43
2023-02-19T09:52:00.620Z,3.47
2023-02-19T09:54:32.277Z,2.00
2023-02-19T09:57:03.469Z,2.17
2023-02-19T09:59:45.437Z,2.60
2023-02-19T10:02:18.873Z,2.03
2023-02-19T10:04:48.718Z,3.00
2023-02-19T10:07:24.706Z,2.60
2023-02-19T10:10:25.836Z,3.00
2023-02-19T10:13:00.627Z,2.70
2023-02-19T10:15:38.706Z,4.97
2023-02-19T10:18:09.505Z,2.40
2023-02-19T10:20:39.768Z,4.57
2023-02-19T10:23:12.331Z,6.53
2023-02-19T10:25:47.167Z,2.93
2023-02-19T10:28:19.980Z,2.30
2023-02-19T10:30:56.377Z,3.67
2023-02-19T10:33:24.865Z,2.50
2023-02-19T10:35:54.964Z,2.63
2023-02-19T10:38:31.142Z,2.90
2023-02-19T10:41:22.020Z,3.67
2023-02-19T10:43:59.700Z,4.27
2023-02-19T10:46:44.766Z,2.63
2023-02-19T10:49:31.252Z,2.77
2023-02-19T10:52:05.538Z,3.70
2023-02-19T10:54:35.571Z,4.83
2023-02-19T10:57:25.339Z,4.97
2023-02-19T11:00:01.296Z,3.47
2023-02-19T11:02:31.936Z,3.80
2023-02-19T11:05:14.811Z,4.80
2023-02-19T11:07:55.991Z,3.40
2023-02-19T11:10:27.150Z,3.23
2023-02-19T11:13:05.705Z,3.40
2023-02-19T11:15:36.788Z,2.77
2023-02-19T11:18:13.954Z,3.20
2023-02-19T11:20:56.367Z,3.07
2023-02-19T11:23:39.303Z,1.93
2023-02-19T11:26:24.903Z,2.00
2023-02-19T11:29:03.048Z,3.77
2023-02-19T11:31:36.163Z,2.73
2023-02-19T11:34:21.088Z,1.77
2023-02-19T11:37:16.932Z,4.40
2023-02-19T11:39:49.566Z,2.33
2023-02-19T11:43:02.988Z,3.23
2023-02-19T11:46:05.499Z,3.57
2023-02-19T11:48:40.563Z,3.33
2023-02-19T11:51:41.784Z,2.30
2023-02-19T11:54:59.191Z,3.70
2023-02-19T11:58:00.308Z,2.87
2023-02-19T12:00:32.755Z,3.50
2023-02-19T12:03:16.161Z,4.53
2023-02-19T12:05:56.281Z,6.60
2023-02-19T12:08:52.055Z,3.63
2023-02-19T12:11:43.162Z,4.07
2023-02-19T12:14:53.139Z,3.50
2023-02-19T12:17:53.474Z,3.50
2023-02-19T12:20:45.604Z,3.53
2023-02-19T12:23:56.586Z,3.20
2023-02-19T12:26:36.968Z,1.90
2023-02-19T12:29:51.913Z,2.83
2023-02-19T12:32:54.547Z,6.63
2023-02-19T12:35:28.254Z,2.73
2023-02-19T12:38:32.568Z,3.77
2023-02-19T12:41:19.564Z,2.80
2023-02-19T12:44:24.401Z,4.07
2023-02-19T12:47:02.336Z,2.67
2023-02-19T12:49:33.938Z,2.40
2023-02-19T12:52:21.653Z,3.37
2023-02-19T12:54:56.578Z,2.07
2023-02-19T12:57:30.191Z,5.50
2023-02-19T13:00:07.509Z,4.00
2023-02-19T13:02:53.400Z,1.97
2023-02-19T13:05:50.478Z,3.40
2023-02-19T13:09:05.451Z,3.13
2023-02-19T13:11:42.974Z,3.03
2023-02-19T13:14:30.325Z,2.67
2023-02-19T13:17:27.717Z,2.53
2023-02-19T13:20:09.719Z,2.50
2023-02-19T13:23:28.299Z,3.97
2023-02-19T13:26:33.824Z,2.67
2023-02-19T13:29:21.031Z,2.70
2023-02-19T13:32:11.781Z,3.70
2023-02-19T13:35:29.994Z,3.27
2023-02-19T13:38:03.400Z,1.30
2023-02-19T13:40:36.330Z,2.13
2023-02-19T13:43:08.147Z,3.10
2023-02-19T13:45:42.662Z,1.63
2023-02-19T13:48:27.414Z,2.50
2023-02-19T13:51:14.219Z,2.63
2023-02-19T13:53:45.661Z,2.83
2023-02-19T13:56:34.007Z,2.47
2023-02-19T13:59:39.137Z,2.07
2023-02-19T14:02:32.590Z,1.93
2023-02-19T14:05:05.839Z,2.80
2023-02-19T14:07:48.610Z,2.13
2023-02-19T14:11:02.303Z,3.37
2023-02-19T14:13:48.960Z,3.70
2023-02-19T14:16:38.815Z,6.37
2023-02-19T14:19:16.985Z,2.30
2023-02-19T14:21:46.507Z,2.87
2023-02-19T14:24:16.576Z,3.23
2023-02-19T14:26:45.294Z,4.73
2023-02-19T14:29:16.582Z,1.83
2023-02-19T14:31:47.151Z,4.20
2023-02-19T14:34:26.924Z,2.73
2023-02-19T14:37:01.657Z,1.90
2023-02-19T14:39:39.177Z,2.43
2023-02-19T14:42:20.215Z,3.70
2023-02-19T14:44:58.650Z,1.70
2023-02-19T14:47:30.895Z,1.90
2023-02-19T14:50:30.194Z,5.23
2023-02-19T14:53:10.198Z,1.73
2023-02-19T14:55:42.780Z,2.13
2023-02-19T14:58:32.051Z,3.03
2023-02-19T15:01:00.996Z,2.63
2023-02-19T15:03:30.958Z,2.97
2023-02-19T15:06:20.218Z,3.00
2023-02-19T15:08:53.468Z,5.00
2023-02-19T15:11:25.885Z,6.07
2023-02-19T15:14:00.147Z,6.37
2023-02-19T15:16:30.208Z,4.80
2023-02-19T15:19:00.386Z,2.87
2023-02-19T15:21:39.297Z,1.93
2023-02-19T15:24:08.294Z,1.17
2023-02-19T15:26:41.013Z,2.00
2023-02-19T15:29:16.303Z,2.03
2023-02-19T15:32:00.120Z,1.83
2023-02-19T15:34:32.279Z,2.73
2023-02-19T15:37:04.165Z,2.27
2023-02-19T15:39:46.702Z,1.60
2023-02-19T15:42:26.258Z,2.30
2023-02-19T15:45:08.131Z,1.40
2023-02-19T15:47:47.177Z,2.73
2023-02-19T15:50:19.374Z,2.73
2023-02-19T15:53:00.331Z,3.40
2023-02-19T15:55:30.945Z,6.10
2023-02-19T15:58:20.252Z,2.27
2023-02-19T16:01:09.931Z,5.10
2023-02-19T16:03:38.889Z,3.00
2023-02-19T16:06:17.070Z,3.17
2023-02-19T16:09:08.355Z,3.17
2023-02-19T16:11:53.175Z,2.47
2023-02-19T16:14:30.788Z,4.47
2023-02-19T16:17:11.304Z,2.30
2023-02-19T16:19:54.365Z,3.27
2023-02-19T16:22:29.762Z,2.47
2023-02-19T16:25:03.327Z,2.93
2023-02-19T16:27:43.162Z,3.33
2023-02-19T16:30:29.249Z,1.63
2023-02-19T16:33:31.882Z,2.47
2023-02-19T16:36:17.708Z,4.70
2023-02-19T16:39:07.833Z,5.03
2023-02-19T16:41:39.330Z,7.47
2023-02-19T16:44:22.565Z,7.80
2023-02-19T16:46:53.838Z,7.73
2023-02-19T16:49:24.483Z,7.80
2023-02-19T16:51:54.008Z,7.93
2023-02-19T16:54:23.219Z,7.57
2023-02-19T16:56:52.300Z,7.17
2023-02-19T16:59:20.865Z,6.87
2023-02-19T17:01:49.552Z,9.07
2023-02-19T17:04:18.169Z,8.87
2023-02-19T17:06:46.948Z,8.33
2023-02-19T17:09:15.847Z,5.70
2023-02-19T17:11:51.203Z,6.43
2023-02-19T17:14:20.097Z,6.27
2023-02-19T17:16:48.878Z,7.07
2023-02-19T17:19:20.691Z,5.50
2023-02-19T17:21:49.783Z,3.80
2023-02-19T17:24:18.462Z,7.63
2023-02-19T17:26:47.108Z,4.40
2023-02-19T17:29:18.514Z,6.43
2023-02-19T17:31:47.144Z,4.40
2023-02-19T17:34:16.507Z,4.10
2023-02-19T17:38:14.288Z,5.70
2023-02-19T17:40:45.130Z,5.23
2023-02-19T17:43:25.398Z,5.27
2023-02-19T17:45:54.325Z,3.63
2023-02-19T17:48:22.983Z,5.07
2023-02-19T17:50:52.363Z,4.30
2023-02-19T17:53:20.999Z,6.73
2023-02-19T17:55:49.595Z,6.40
2023-02-19T17:58:18.153Z,5.47
2023-02-19T18:00:46.889Z,6.10
2023-02-19T18:03:15.481Z,5.17
2023-02-19T18:05:44.268Z,4.37
2023-02-19T18:08:13.018Z,4.23
2023-02-19T18:10:41.471Z,4.37
2023-02-19T18:13:10.540Z,4.80
2023-02-19T18:15:38.989Z,6.40
2023-02-19T18:18:09.771Z,3.93
2023-02-19T18:20:38.556Z,6.77
2023-02-19T18:23:07.152Z,5.07
2023-02-19T18:25:35.645Z,4.37
2023-02-19T18:28:03.729Z,4.10
2023-02-19T18:30:33.951Z,3.50
2023-02-19T18:33:02.554Z,3.70
2023-02-19T18:35:30.992Z,4.70
2023-02-19T18:37:59.794Z,6.23
2023-02-19T18:40:28.955Z,4.13
2023-02-19T18:42:57.596Z,4.33
2023-02-19T18:45:27.710Z,4.97
2023-02-19T18:47:56.206Z,4.47
2023-02-19T18:50:24.669Z,3.43
2023-02-19T18:52:53.234Z,6.80
2023-02-19T18:55:22.513Z,5.37
2023-02-19T18:57:51.359Z,5.20
2023-02-19T19:00:26.993Z,4.27
2023-02-19T19:03:00.356Z,3.47
2023-02-19T19:05:29.465Z,6.67
2023-02-19T19:07:59.350Z,5.47
2023-02-19T19:10:29.296Z,5.43
2023-02-19T19:12:58.803Z,3.40
2023-02-19T19:15:28.142Z,6.67
2023-02-19T19:17:57.085Z,4.33
2023-02-19T19:20:26.089Z,4.60
2023-02-19T19:22:55.453Z,4.40
2023-02-19T19:25:24.301Z,5.47
2023-02-19T19:27:56.660Z,3.83
2023-02-19T19:30:25.783Z,5.97
2023-02-19T19:32:54.670Z,4.83
2023-02-19T19:35:23.910Z,3.47
2023-02-19T19:37:52.475Z,4.77
2023-02-19T19:40:21.388Z,3.40
2023-02-19T19:42:53.319Z,6.53
2023-02-19T19:45:22.490Z,5.90
2023-02-19T19:47:51.233Z,5.60
2023-02-19T19:50:20.002Z,6.87
2023-02-19T19:52:48.588Z,5.33
2023-02-19T19:55:17.273Z,8.17
2023-02-19T19:57:45.781Z,3.70
2023-02-19T20:00:17.693Z,4.97
2023-02-19T20:02:47.171Z,7.03
2023-02-19T20:05:16.954Z,4.50
2023-02-19T20:07:45.898Z,5.70
2023-02-19T20:10:15.984Z,5.10
2023-02-19T20:12:44.558Z,5.00
2023-02-19T20:15:13.347Z,4.80
2023-02-19T20:17:41.908Z,4.33
2023-02-19T20:20:11.154Z,7.30
2023-02-19T20:22:40.003Z,8.33
2023-02-19T20:25:08.993Z,6.53
2023-02-19T20:27:37.472Z,8.23
2023-02-19T20:30:11.251Z,8.37
2023-02-19T20:32:40.109Z,5.87
2023-02-19T20:35:08.885Z,8.37
2023-02-19T20:37:40.337Z,8.03
2023-02-19T20:40:09.749Z,10.07
2023-02-19T20:42:38.409Z,7.90
2023-02-19T20:45:07.500Z,6.90
2023-02-19T20:47:37.826Z,10.20
2023-02-19T20:50:08.337Z,10.60
2023-02-19T20:52:36.960Z,7.80
2023-02-19T20:55:05.896Z,12.50
2023-02-19T20:57:34.415Z,9.60
2023-02-19T21:00:03.713Z,6.43
2023-02-19T21:02:32.279Z,8.73
2023-02-19T21:05:00.955Z,9.97
2023-02-19T21:07:29.675Z,6.87
2023-02-19T21:09:58.348Z,8.60
2023-02-19T21:12:27.045Z,9.93
2023-02-19T21:14:56.252Z,9.27
2023-02-19T21:17:24.718Z,8.57
2023-02-19T21:19:53.324Z,7.80
2023-02-19T21:22:21.746Z,10.40
2023-02-19T21:24:53.725Z,10.10
2023-02-19T21:27:22.855Z,8.60
2023-02-19T21:29:51.315Z,9.63
2023-02-19T21:32:19.842Z,8.77
2023-02-19T21:34:48.859Z,8.63
2023-02-19T21:37:17.313Z,11.93
2023-02-19T21:39:46.988Z,10.03
2023-02-19T21:42:15.458Z,10.47
2023-02-19T21:44:43.836Z,10.17
2023-02-19T21:47:13.083Z,11.30
2023-02-19T21:49:41.841Z,9.90
2023-02-19T21:52:10.720Z,8.70
2023-02-19T21:54:39.114Z,6.80
2023-02-19T21:57:09.385Z,12.43
2023-02-19T21:59:37.914Z,8.70
2023-02-19T22:02:06.276Z,8.40
2023-02-19T22:04:34.644Z,8.57
2023-02-19T22:07:03.068Z,8.23
2023-02-19T22:09:49.017Z,11.70
2023-02-19T22:12:18.255Z,11.30
2023-02-19T22:14:46.883Z,11.63
2023-02-19T22:17:15.823Z,9.83
2023-02-19T22:19:44.312Z,8.53
2023-02-19T22:22:12.932Z,11.23
2023-02-19T22:24:41.341Z,8.80
2023-02-19T22:27:09.849Z,9.50
2023-02-19T22:29:38.266Z,10.23
2023-02-19T22:32:07.164Z,9.27
2023-02-19T22:34:41.833Z,9.73
2023-02-19T22:37:10.941Z,9.87
2023-02-19T22:39:39.366Z,10.33
2023-02-19T22:42:08.020Z,9.10
2023-02-19T22:44:36.550Z,7.70
2023-02-19T22:47:05.324Z,9.93
2023-02-19T22:49:33.718Z,9.80
2023-02-19T22:52:08.502Z,8.07
2023-02-19T22:54:37.785Z,8.50
2023-02-19T22:57:06.507Z,9.73
2023-02-19T22:59:34.891Z,7.93
2023-02-19T23:02:03.573Z,11.50
2023-02-19T23:04:32.217Z,7.00
2023-02-19T23:07:00.712Z,8.50
2023-02-19T23:09:30.485Z,8.80
2023-02-19T23:12:11.361Z,6.73
2023-02-19T23:14:39.974Z,7.70
2023-02-19T23:17:08.655Z,7.13
2023-02-19T23:19:37.964Z,8.10
2023-02-19T23:22:06.629Z,7.67
2023-02-19T23:24:35.072Z,7.43
2023-02-19T23:27:03.476Z,7.23
2023-02-19T23:29:31.915Z,6.80
2023-02-19T23:32:01.346Z,6.90
2023-02-19T23:34:29.828Z,6.97
2023-02-19T23:36:59.578Z,8.73
2023-02-19T23:39:28.419Z,8.77
2023-02-19T23:41:58.541Z,6.60
2023-02-19T23:44:27.345Z,6.93
2023-02-19T23:46:55.756Z,8.53
2023-02-19T23:49:24.195Z,6.73
2023-02-19T23:51:52.853Z,7.20
2023-02-19T23:54:21.260Z,7.87
2023-02-19T23:56:49.678Z,6.23
2023-02-19T23:59:17.809Z,6.80
